Time;durP1;ratioP1;P1;durP2;ratioP2;P2;SDS_P1;SDS_P2;PMS_P1;PMS_P2;Temp;Humidity;BMP_temperature;BMP_pressure;BME280_temperature;BME280_humidity;BME280_pressure;Samples;Min_cycle;Max_cycle;Signal;HPM_P1;HPM_P2
2022/05/22 00:01:38;;;;;;;10.27;6.23;;;;;;;14.17;66.93;101411.81;5037800;28;20188;-62
2022/05/22 00:04:04;;;;;;;10.30;6.00;;;;;;;14.29;66.82;101417.13;5037566;28;20387;-64
2022/05/22 00:06:29;;;;;;;9.00;6.43;;;;;;;14.14;66.72;101417.91;5037912;28;20611;-62
2022/05/22 00:08:55;;;;;;;9.77;5.63;;;;;;;13.83;68.02;101432.56;5037517;28;20178;-63
2022/05/22 00:11:22;;;;;;;11.00;5.80;;;;;;;13.76;68.49;101415.94;5037736;28;20598;-61
2022/05/22 00:13:47;;;;;;;11.37;5.77;;;;;;;14.05;67.80;101428.34;5037767;28;20432;-64
2022/05/22 00:18:56;;;;;;;12.30;6.30;;;;;;;13.80;68.84;101422.94;5041173;28;20235;-62
2022/05/22 00:21:22;;;;;;;10.60;5.83;;;;;;;13.90;68.43;101420.38;5041133;28;20508;-62
2022/05/22 00:23:47;;;;;;;10.70;5.70;;;;;;;13.83;68.39;101424.72;5040969;28;20192;-64
2022/05/22 00:26:12;;;;;;;8.73;5.57;;;;;;;13.85;68.64;101419.47;5041842;28;20452;-63
2022/05/22 00:28:37;;;;;;;11.63;6.10;;;;;;;13.20;70.82;101413.66;5040623;28;20182;-63
2022/05/22 00:31:03;;;;;;;11.97;6.23;;;;;;;13.78;69.62;101413.31;5040951;28;20185;-64
2022/05/22 00:33:28;;;;;;;9.83;6.00;;;;;;;13.96;68.93;101415.16;5041366;28;20186;-63
2022/05/22 00:35:53;;;;;;;7.93;6.10;;;;;;;13.67;69.27;101408.00;5041015;28;20560;-64
2022/05/22 00:38:19;;;;;;;10.93;5.80;;;;;;;13.73;69.53;101410.63;5040629;28;20280;-63
2022/05/22 00:40:44;;;;;;;15.17;6.07;;;;;;;13.53;70.03;101417.47;5041579;28;20206;-63
2022/05/22 00:43:29;;;;;;;8.23;5.30;;;;;;;13.72;69.55;101406.28;5040828;28;20448;-63
2022/05/22 00:45:55;;;;;;;8.47;6.23;;;;;;;13.86;69.40;101413.38;5056751;28;20196;-63
2022/05/22 00:48:21;;;;;;;7.97;5.80;;;;;;;13.68;69.81;101407.13;5040751;28;20420;-62
2022/05/22 00:50:47;;;;;;;9.47;5.97;;;;;;;13.88;69.36;101406.38;5040539;28;20399;-64
2022/05/22 00:53:12;;;;;;;13.93;7.20;;;;;;;14.22;68.74;101401.34;5040181;28;20170;-64
2022/05/22 00:55:38;;;;;;;12.93;6.33;;;;;;;13.79;69.06;101405.47;5039890;28;20182;-64
2022/05/22 00:58:18;;;;;;;7.00;5.60;;;;;;;13.74;69.97;101401.91;5040470;28;20553;-64
2022/05/22 01:00:44;;;;;;;8.77;6.00;;;;;;;13.42;70.25;101404.28;5040591;28;20288;-64
2022/05/22 01:03:28;;;;;;;11.23;6.17;;;;;;;13.61;70.20;101402.69;5040430;28;20508;-64
2022/05/22 01:05:55;;;;;;;10.60;6.47;;;;;;;13.74;69.81;101396.69;5040064;28;20713;-64
2022/05/22 01:08:20;;;;;;;13.63;6.10;;;;;;;13.74;69.85;101404.53;5039809;28;20623;-64
2022/05/22 01:10:48;;;;;;;11.23;6.57;;;;;;;13.71;70.02;101399.28;5040435;28;20399;-64
2022/05/22 01:13:16;;;;;;;8.70;5.70;;;;;;;13.65;70.51;101407.09;5040147;28;20197;-63
2022/05/22 01:15:42;;;;;;;9.90;6.07;;;;;;;13.60;70.95;101403.59;5040141;28;20755;-64
2022/05/22 01:18:07;;;;;;;16.43;6.30;;;;;;;13.61;69.95;101405.31;5040061;28;20530;-64
2022/05/22 01:20:32;;;;;;;12.87;6.17;;;;;;;13.65;70.06;101412.31;5040402;28;20174;-63
2022/05/22 01:22:58;;;;;;;9.97;6.20;;;;;;;13.41;71.18;101416.50;5040640;28;20188;-64
2022/05/22 01:25:23;;;;;;;10.17;7.10;;;;;;;13.41;70.97;101405.13;5040154;28;20174;-64
2022/05/22 01:27:49;;;;;;;7.67;5.80;;;;;;;13.18;72.02;101404.91;5039707;28;20174;-63
2022/05/22 01:30:21;;;;;;;14.57;6.27;;;;;;;13.18;71.68;101408.41;5039727;28;20175;-63
2022/05/22 01:32:48;;;;;;;12.53;6.57;;;;;;;13.24;71.90;101402.34;5039998;28;20186;-63
2022/05/22 01:35:17;;;;;;;7.90;5.73;;;;;;;13.25;72.00;101398.88;5040082;28;20645;-64
2022/05/22 01:37:42;;;;;;;8.47;5.70;;;;;;;13.50;70.90;101402.59;5040033;28;20425;-63
2022/05/22 01:40:09;;;;;;;12.40;5.50;;;;;;;13.38;71.64;101400.78;5039937;28;20479;-63
2022/05/22 01:42:35;;;;;;;12.13;5.60;;;;;;;13.21;72.39;101399.72;5040131;28;20185;-64
2022/05/22 01:45:00;;;;;;;7.07;6.20;;;;;;;13.56;71.66;101386.94;5039803;28;20407;-63
2022/05/22 01:47:25;;;;;;;12.93;6.73;;;;;;;13.37;72.08;101385.03;5039776;28;20680;-64
2022/05/22 01:49:51;;;;;;;13.70;6.87;;;;;;;13.55;71.88;101374.72;5040061;28;20193;-63
2022/05/22 01:52:16;;;;;;;10.40;7.30;;;;;;;13.67;71.44;101371.31;5039621;28;20570;-64
2022/05/22 01:54:41;;;;;;;12.67;6.13;;;;;;;13.38;72.17;101373.69;5039676;28;20248;-65
2022/05/22 01:57:07;;;;;;;13.93;6.90;;;;;;;13.09;73.47;101384.75;5040178;28;20605;-64
2022/05/22 01:59:32;;;;;;;15.83;6.70;;;;;;;13.18;73.50;101384.84;5039442;28;20206;-64
2022/05/22 02:01:57;;;;;;;11.33;6.90;;;;;;;13.12;73.80;101388.31;5039427;28;20186;-63
2022/05/22 02:04:23;;;;;;;10.17;7.00;;;;;;;13.13;73.95;101387.41;5040002;28;20539;-64
2022/05/22 02:09:34;;;;;;;13.60;6.77;;;;;;;13.39;73.67;101388.56;5039437;28;20869;-64
2022/05/22 02:11:59;;;;;;;12.10;6.33;;;;;;;13.10;74.22;101392.63;5039088;28;20396;-64
2022/05/22 02:14:24;;;;;;;9.50;6.50;;;;;;;13.23;73.92;101387.50;5039240;28;20424;-65
2022/05/22 02:16:50;;;;;;;14.43;6.90;;;;;;;13.01;74.42;101392.53;5039244;28;20182;-65
2022/05/22 02:19:15;;;;;;;16.17;6.67;;;;;;;13.00;75.08;101388.16;5039178;28;20209;-65
2022/05/22 02:21:40;;;;;;;10.00;6.27;;;;;;;13.31;73.87;101391.97;5039140;28;20440;-64
2022/05/22 02:24:06;;;;;;;14.27;6.50;;;;;;;12.98;74.28;101390.75;5038875;28;20524;-63
2022/05/22 02:26:31;;;;;;;9.87;6.27;;;;;;;13.16;73.89;101390.94;5038856;28;20171;-63
2022/05/22 02:28:56;;;;;;;13.23;6.40;;;;;;;13.23;73.91;101383.16;5039543;28;20174;-64
2022/05/22 02:31:22;;;;;;;11.63;6.47;;;;;;;13.11;73.95;101389.16;5038929;28;20182;-64
2022/05/22 02:33:47;;;;;;;12.00;6.93;;;;;;;13.26;73.65;101388.41;5038778;28;20244;-64
2022/05/22 02:36:14;;;;;;;16.80;7.33;;;;;;;13.06;73.71;101390.84;5039290;28;20523;-64
2022/05/22 02:38:40;;;;;;;13.13;6.73;;;;;;;13.20;73.96;101388.34;5038730;28;20256;-64
2022/05/22 02:41:15;;;;;;;9.17;6.60;;;;;;;13.18;74.25;101389.19;5038108;28;20407;-63
2022/05/22 02:43:40;;;;;;;10.83;6.40;;;;;;;13.29;73.62;101382.34;5038504;28;20397;-63
2022/05/22 02:46:09;;;;;;;9.27;6.40;;;;;;;13.27;73.57;101392.81;5038900;28;20482;-64
2022/05/22 02:48:35;;;;;;;10.13;6.73;;;;;;;13.18;73.99;101386.56;5038455;28;20177;-64
2022/05/22 02:51:00;;;;;;;14.67;7.00;;;;;;;13.21;73.77;101378.78;5038526;28;20433;-64
2022/05/22 02:53:25;;;;;;;9.30;6.00;;;;;;;13.11;73.86;101377.78;5038293;28;20174;-63
2022/05/22 02:55:51;;;;;;;14.40;6.20;;;;;;;12.80;74.69;101378.38;5039201;28;20527;-64
2022/05/22 02:58:16;;;;;;;11.37;6.27;;;;;;;13.10;74.52;101376.06;5038313;28;20468;-63
2022/05/22 03:00:41;;;;;;;18.90;7.80;;;;;;;13.06;74.37;101380.38;5038379;28;20209;-64
2022/05/22 03:03:07;;;;;;;10.07;6.60;;;;;;;12.99;75.09;101383.81;5038821;28;20174;-65
2022/05/22 03:08:16;;;;;;;9.87;6.93;;;;;;;13.06;74.18;101385.59;5038783;28;20223;-62
2022/05/22 03:10:42;;;;;;;12.67;6.40;;;;;;;13.15;73.84;101376.94;5038466;28;20413;-63
2022/05/22 03:13:07;;;;;;;11.07;6.20;;;;;;;13.11;73.89;101383.91;5038226;28;20485;-63
2022/05/22 03:15:32;;;;;;;9.23;6.13;;;;;;;13.27;73.96;101390.19;5038806;28;20170;-63
2022/05/22 03:17:58;;;;;;;9.60;6.03;;;;;;;13.12;74.60;101395.25;5038127;28;20233;-64
2022/05/22 03:20:23;;;;;;;9.90;5.97;;;;;;;13.04;74.22;101395.16;5038284;28;20166;-64
2022/05/22 03:22:48;;;;;;;13.33;5.97;;;;;;;12.94;74.75;101394.22;5038395;28;20189;-64
2022/05/22 03:25:14;;;;;;;11.87;6.17;;;;;;;12.71;75.34;101393.09;5038096;28;20177;-64
2022/05/22 03:27:39;;;;;;;12.90;5.97;;;;;;;13.19;74.25;101385.72;5038080;28;20488;-62
2022/05/22 03:30:05;;;;;;;11.73;7.13;;;;;;;13.25;73.54;101386.66;5038642;28;20162;-64
2022/05/22 03:32:32;;;;;;;12.60;6.83;;;;;;;13.25;74.18;101389.28;5037797;28;20174;-64
2022/05/22 03:34:57;;;;;;;18.33;7.17;;;;;;;13.13;74.66;101384.78;5038084;28;20417;-64
2022/05/22 03:37:25;;;;;;;12.53;7.10;;;;;;;13.29;74.76;101387.56;5038499;28;20409;-64
2022/05/22 03:39:54;;;;;;;10.17;6.67;;;;;;;13.37;73.93;101377.16;5037324;28;20217;-64
2022/05/22 03:42:19;;;;;;;12.70;6.50;;;;;;;13.44;73.91;101386.84;5037971;28;20418;-64
2022/05/22 03:44:45;;;;;;;10.73;6.20;;;;;;;13.30;73.65;101384.06;5038323;28;20503;-63
2022/05/22 03:47:10;;;;;;;11.20;6.30;;;;;;;13.25;73.95;101386.66;5037899;28;20211;-63
2022/05/22 03:49:35;;;;;;;12.67;7.00;;;;;;;13.38;74.15;101378.94;5037959;28;20223;-64
2022/05/22 03:52:01;;;;;;;15.13;7.17;;;;;;;13.22;74.01;101390.97;5041065;28;20544;-67
2022/05/22 03:54:26;;;;;;;9.97;6.00;;;;;;;13.24;74.25;101386.66;5041090;28;20199;-64
2022/05/22 03:56:53;;;;;;;10.73;7.37;;;;;;;13.19;74.19;101390.97;5041877;28;20162;-64
2022/05/22 03:59:18;;;;;;;9.97;6.53;;;;;;;13.34;73.94;101378.03;5042115;28;20198;-64
2022/05/22 04:01:44;;;;;;;12.73;5.60;;;;;;;14.59;74.33;101364.78;5041773;28;20496;-67
2022/05/22 04:04:09;;;;;;;12.53;4.87;;;;;;;15.58;71.77;101368.41;5041764;28;20167;-71
2022/05/22 04:06:34;;;;;;;11.70;5.77;;;;;;;15.11;68.85;101369.28;5042174;28;20528;-68
2022/05/22 04:09:00;;;;;;;9.27;5.77;;;;;;;15.83;65.26;101364.03;5041868;28;20182;-72
2022/05/22 04:11:25;;;;;;;9.40;5.30;;;;;;;15.59;65.83;101361.41;5041760;28;20201;-72
2022/05/22 04:13:50;;;;;;;11.00;6.43;;;;;;;15.96;63.21;101358.72;5041767;28;20240;-71
2022/05/22 04:16:16;;;;;;;7.83;4.97;;;;;;;15.74;63.50;101366.63;5041481;28;20194;-72
2022/05/22 04:18:41;;;;;;;10.73;4.40;;;;;;;15.70;63.69;101370.16;5040424;28;20222;-71
2022/05/22 04:21:07;;;;;;;5.47;4.97;;;;;;;16.03;64.37;101363.06;5041946;28;20166;-71
2022/05/22 04:26:17;;;;;;;7.83;4.67;;;;;;;15.94;62.83;101371.88;5041324;28;20399;-67
2022/05/22 04:28:42;;;;;;;10.70;5.40;;;;;;;15.63;64.49;101376.28;5041444;28;20413;-70
2022/05/22 04:31:07;;;;;;;10.47;5.43;;;;;;;15.95;63.24;101371.00;5041223;28;20558;-75
2022/05/22 04:33:33;;;;;;;10.37;5.30;;;;;;;16.56;63.31;101373.41;5041644;28;20167;-75
2022/05/22 04:35:59;;;;;;;11.17;6.00;;;;;;;15.37;66.26;101377.19;5041034;28;20550;-65
2022/05/22 04:38:24;;;;;;;9.10;4.80;;;;;;;16.78;62.37;101379.44;5041077;28;20190;-66
2022/05/22 04:41:01;;;;;;;7.33;5.30;;;;;;;16.54;62.86;101380.44;5041427;28;20395;-66
2022/05/22 04:43:28;;;;;;;10.00;4.73;;;;;;;16.83;59.96;101381.16;5040659;28;20166;-67
2022/05/22 04:45:54;;;;;;;8.97;5.10;;;;;;;17.19;59.79;101380.09;5040993;28;20416;-66
2022/05/22 04:48:24;;;;;;;12.10;5.13;;;;;;;17.89;57.49;101362.72;5040832;28;20388;-66
2022/05/22 04:50:51;;;;;;;6.47;5.10;;;;;;;16.50;60.00;101375.16;5040838;28;20524;-67
2022/05/22 04:53:19;;;;;;;9.67;4.83;;;;;;;16.36;62.35;101379.66;5041109;28;20405;-67
2022/05/22 04:55:44;;;;;;;6.10;4.10;;;;;;;16.73;61.01;101376.81;5040644;28;20423;-69
2022/05/22 04:58:09;;;;;;;6.60;4.57;;;;;;;16.92;59.79;101379.38;5040689;28;20484;-71
2022/05/22 05:00:35;;;;;;;6.27;4.73;;;;;;;16.26;61.17;101381.41;5041181;28;20249;-71
2022/05/22 05:03:00;;;;;;;8.80;5.60;;;;;;;15.88;61.71;101397.31;5039616;28;20224;-70
2022/05/22 05:05:27;;;;;;;8.50;4.80;;;;;;;15.81;62.29;101404.34;5039672;28;20189;-69
2022/05/22 05:07:53;;;;;;;6.57;4.23;;;;;;;17.14;58.72;101396.81;5040914;28;20190;-69
2022/05/22 05:10:18;;;;;;;8.87;4.77;;;;;;;16.83;59.01;101391.69;5040436;28;20452;-65
2022/05/22 05:12:44;;;;;;;8.47;5.53;;;;;;;16.64;60.29;101392.66;5039459;28;20258;-67
2022/05/22 05:15:12;;;;;;;6.10;5.47;;;;;;;16.52;59.70;101401.50;5040819;28;20531;-67
2022/05/22 05:17:39;;;;;;;6.87;5.10;;;;;;;16.34;61.35;101397.19;5040190;28;20599;-68
2022/05/22 05:20:05;;;;;;;10.40;5.70;;;;;;;16.53;60.24;101386.59;5039351;28;20456;-67
2022/05/22 05:22:31;;;;;;;7.60;5.80;;;;;;;15.65;62.80;101390.28;5039471;28;20420;-68
2022/05/22 05:24:56;;;;;;;9.47;5.70;;;;;;;15.37;64.20;101385.06;5039992;28;20413;-63
2022/05/22 05:27:22;;;;;;;11.53;6.60;;;;;;;15.08;65.58;101383.28;5039608;28;20466;-66
2022/05/22 05:29:47;;;;;;;7.60;5.90;;;;;;;15.02;65.84;101383.28;5039579;28;20524;-64
2022/05/22 05:32:17;;;;;;;11.73;6.37;;;;;;;15.03;66.19;101399.91;5039456;28;20181;-63
2022/05/22 05:34:42;;;;;;;12.23;5.90;;;;;;;15.23;65.73;101392.06;5039470;28;20228;-63
2022/05/22 05:37:08;;;;;;;8.03;5.80;;;;;;;15.13;66.30;101397.28;5040420;28;20405;-64
2022/05/22 05:39:34;;;;;;;16.83;6.30;;;;;;;15.15;65.97;101400.81;5039924;28;20604;-64
2022/05/22 05:41:59;;;;;;;9.47;6.20;;;;;;;15.19;66.24;101395.56;5039730;28;20178;-64
2022/05/22 05:44:25;;;;;;;8.70;6.20;;;;;;;14.59;67.12;101391.88;5040233;28;20478;-64
2022/05/22 05:46:50;;;;;;;10.23;6.53;;;;;;;15.39;65.62;101388.56;5039668;28;20178;-63
2022/05/22 05:49:15;;;;;;;13.90;6.77;;;;;;;16.07;63.90;101393.75;5039520;28;20256;-64
2022/05/22 05:51:41;;;;;;;11.97;7.17;;;;;;;15.60;64.40;101392.03;5040143;28;20224;-63
2022/05/22 05:54:06;;;;;;;8.07;5.67;;;;;;;15.75;64.33;101392.03;5039320;28;20254;-64
2022/05/22 05:56:31;;;;;;;10.70;6.60;;;;;;;16.14;63.47;101384.09;5039505;28;20174;-64
2022/05/22 05:58:57;;;;;;;11.50;6.20;;;;;;;16.80;61.32;101386.41;5039639;28;20505;-64
2022/05/22 06:01:24;;;;;;;11.60;6.30;;;;;;;16.67;60.98;101387.41;5039447;28;20595;-64
2022/05/22 06:03:50;;;;;;;11.30;6.70;;;;;;;16.67;61.89;101384.78;5039259;28;20177;-64
2022/05/22 06:06:16;;;;;;;7.10;5.50;;;;;;;16.17;62.85;101392.84;5039901;28;20375;-64
2022/05/22 06:08:42;;;;;;;8.50;6.47;;;;;;;15.92;63.53;101399.06;5039305;28;20388;-63
2022/05/22 06:11:08;;;;;;;7.50;6.53;;;;;;;15.76;64.00;101390.28;5039172;28;20166;-63
2022/05/22 06:13:34;;;;;;;9.03;6.17;;;;;;;15.97;63.78;101392.03;5039331;28;20395;-64
2022/05/22 06:16:02;;;;;;;7.33;6.13;;;;;;;15.53;64.91;101385.06;5039210;28;20391;-64
2022/05/22 06:18:27;;;;;;;9.10;6.53;;;;;;;15.52;65.27;101397.31;5039004;28;20461;-64
2022/05/22 06:20:52;;;;;;;9.20;6.87;;;;;;;15.62;64.93;101393.78;5039433;28;20416;-64
2022/05/22 06:23:18;;;;;;;9.93;7.30;;;;;;;15.79;64.55;101385.91;5039044;28;20416;-65
2022/05/22 06:25:46;;;;;;;11.00;7.20;;;;;;;16.22;63.74;101384.94;5038980;28;20174;-64
2022/05/22 06:28:12;;;;;;;10.20;7.53;;;;;;;15.77;64.56;101382.38;5039077;28;20224;-65
2022/05/22 06:30:37;;;;;;;11.20;7.70;;;;;;;15.94;63.67;101378.88;5038967;28;20499;-63
2022/05/22 06:33:11;;;;;;;13.57;7.10;;;;;;;16.29;63.09;101375.25;5038755;28;20593;-64
2022/05/22 06:35:40;;;;;;;7.70;6.43;;;;;;;16.11;63.59;101382.34;5039275;28;20179;-65
2022/05/22 06:38:06;;;;;;;11.93;7.43;;;;;;;16.73;61.49;101387.34;5038618;28;20421;-64
2022/05/22 06:40:31;;;;;;;14.83;6.80;;;;;;;16.49;62.18;101386.59;5038585;28;20391;-64
2022/05/22 06:42:59;;;;;;;10.77;7.30;;;;;;;16.50;61.28;101380.44;5038784;28;20402;-64
2022/05/22 06:45:25;;;;;;;7.37;6.13;;;;;;;17.38;60.05;101381.66;5038633;28;20431;-64
2022/05/22 06:47:50;;;;;;;8.80;5.60;;;;;;;18.28;57.42;101375.50;5038431;28;20420;-64
2022/05/22 06:50:21;;;;;;;9.27;6.43;;;;;;;18.22;57.51;101375.59;5038882;28;20798;-64
2022/05/22 06:52:47;;;;;;;9.80;5.77;;;;;;;19.34;53.40;101374.00;5038325;28;20256;-64
2022/05/22 06:55:13;;;;;;;9.93;5.60;;;;;;;18.98;54.14;101376.34;5038235;28;20416;-64
2022/05/22 06:57:39;;;;;;;11.10;6.20;;;;;;;19.17;53.62;101374.31;5038772;28;20224;-64
2022/05/22 07:00:08;;;;;;;8.50;5.73;;;;;;;18.66;54.84;101374.16;5038331;28;20882;-64
2022/05/22 07:02:35;;;;;;;9.57;5.70;;;;;;;19.30;53.41;101372.31;5038166;28;20466;-64
2022/05/22 07:05:01;;;;;;;8.37;5.97;;;;;;;20.27;50.45;101374.97;5038715;28;20894;-64
2022/05/22 07:07:26;;;;;;;10.63;5.27;;;;;;;20.02;49.95;101377.22;5038129;28;20453;-64
2022/05/22 07:09:52;;;;;;;8.73;5.47;;;;;;;19.77;50.72;101376.78;5038025;28;20162;-64
2022/05/22 07:12:18;;;;;;;7.93;5.27;;;;;;;19.22;52.73;101378.63;5038370;28;20162;-64
2022/05/22 07:14:43;;;;;;;10.00;5.70;;;;;;;19.27;52.80;101385.59;5038137;28;20166;-64
2022/05/22 07:17:10;;;;;;;11.60;5.03;;;;;;;18.35;54.42;101385.13;5038153;28;20461;-65
2022/05/22 07:19:37;;;;;;;9.13;5.27;;;;;;;20.56;48.43;101378.78;5038458;28;20225;-64
2022/05/22 07:22:04;;;;;;;9.40;4.63;;;;;;;21.19;46.00;101372.06;5037107;28;20495;-64
2022/05/22 07:24:29;;;;;;;5.87;4.00;;;;;;;20.10;48.37;101374.44;5037717;28;20441;-64
2022/05/22 07:26:54;;;;;;;8.03;4.10;;;;;;;18.81;51.83;101365.13;5038249;28;20682;-64
2022/05/22 07:29:20;;;;;;;7.10;4.60;;;;;;;18.13;54.36;101363.38;5037685;28;20186;-64
2022/05/22 07:31:45;;;;;;;7.60;4.60;;;;;;;19.41;50.87;101358.91;5037729;28;20190;-65
2022/05/22 07:34:10;;;;;;;8.20;4.00;;;;;;;20.36;47.37;101350.06;5038390;28;20413;-65
2022/05/22 07:36:35;;;;;;;5.47;3.73;;;;;;;19.05;49.82;101361.28;5037940;28;20583;-65
2022/05/22 07:39:01;;;;;;;5.17;3.57;;;;;;;18.76;51.08;101359.91;5037810;28;20535;-65
2022/05/22 07:41:26;;;;;;;9.17;4.67;;;;;;;18.23;52.36;101366.78;5038272;28;20536;-65
2022/05/22 07:43:52;;;;;;;8.23;4.13;;;;;;;17.14;55.17;101370.44;5036941;28;20460;-65
2022/05/22 07:46:17;;;;;;;8.30;4.20;;;;;;;17.13;55.80;101367.81;5037814;28;20182;-64
2022/05/22 07:48:43;;;;;;;7.63;5.40;;;;;;;17.79;54.84;101361.06;5038165;28;20210;-65
2022/05/22 07:51:10;;;;;;;8.50;4.40;;;;;;;17.50;55.66;101362.25;5037804;28;20213;-63
2022/05/22 07:53:35;;;;;;;7.73;4.90;;;;;;;17.74;54.89;101361.13;5037739;28;20423;-65
2022/05/22 07:56:01;;;;;;;5.93;4.07;;;;;;;17.47;55.42;101365.78;5038644;28;20492;-64
2022/05/22 07:58:28;;;;;;;7.90;4.50;;;;;;;18.38;52.94;101353.38;5037645;28;20186;-65
2022/05/22 08:00:54;;;;;;;8.30;4.07;;;;;;;22.22;43.42;101341.03;5037822;28;20406;-65
2022/05/22 08:03:20;;;;;;;9.80;4.57;;;;;;;23.23;41.38;101338.78;5037954;28;20454;-65
2022/05/22 08:05:46;;;;;;;11.80;3.80;;;;;;;20.52;45.15;101340.00;5037613;28;20417;-65
2022/05/22 08:08:11;;;;;;;6.47;3.90;;;;;;;20.74;46.50;101347.50;5037605;28;20170;-65
2022/05/22 08:10:39;;;;;;;7.67;4.30;;;;;;;19.71;48.21;101346.03;5037006;28;20409;-65
2022/05/22 08:13:05;;;;;;;7.83;4.07;;;;;;;19.31;48.67;101352.06;5037388;28;20252;-65
2022/05/22 08:15:32;;;;;;;7.60;3.93;;;;;;;19.34;49.24;101349.34;5037533;28;20424;-65
2022/05/22 08:17:58;;;;;;;6.40;4.00;;;;;;;21.66;43.07;101337.28;5037857;28;20510;-65
2022/05/22 08:20:24;;;;;;;6.43;3.70;;;;;;;23.87;39.35;101333.00;5037655;28;20468;-64
2022/05/22 08:22:55;;;;;;;4.87;3.33;;;;;;;24.07;38.06;101327.88;5037614;28;20170;-65
2022/05/22 08:25:21;;;;;;;5.23;3.37;;;;;;;23.63;38.19;101326.78;5037414;28;20473;-65
2022/05/22 08:27:47;;;;;;;5.00;3.50;;;;;;;24.97;36.46;101317.28;5037432;28;20448;-66
2022/05/22 08:30:14;;;;;;;5.57;3.13;;;;;;;25.00;35.88;101314.47;5037903;28;20405;-66
2022/05/22 08:32:41;;;;;;;5.07;3.40;;;;;;;23.88;37.51;101321.47;5037310;28;20201;-66
2022/05/22 08:35:08;;;;;;;4.90;3.10;;;;;;;22.89;38.37;101321.25;5037279;28;20428;-65
2022/05/22 08:37:34;;;;;;;4.47;3.13;;;;;;;20.99;42.13;101326.59;5038791;28;20401;-65
2022/05/22 08:40:00;;;;;;;4.20;3.20;;;;;;;20.17;44.88;101329.28;5041125;28;20551;-64
2022/05/22 08:42:43;;;;;;;5.40;3.70;;;;;;;19.74;46.38;101335.41;5040871;28;20171;-64
2022/05/22 08:45:18;;;;;;;6.80;3.90;;;;;;;19.03;48.22;101336.63;5041095;28;20409;-65
2022/05/22 08:47:55;;;;;;;7.03;4.70;;;;;;;19.53;48.41;101350.75;5040889;28;20420;-65
2022/05/22 08:50:21;;;;;;;5.03;3.57;;;;;;;20.86;44.17;101340.16;5040904;28;20409;-64
2022/05/22 08:53:18;;;;;;;5.57;3.50;;;;;;;22.18;41.22;101329.63;5040565;28;20431;-64
2022/05/22 09:01:22;;;;;;;4.83;3.57;;;;;;;24.47;35.63;101324.56;5040081;28;20444;-66
2022/05/22 09:04:05;;;;;;;6.37;3.50;;;;;;;22.13;39.62;101331.53;5040551;28;20441;-65
2022/05/22 09:06:34;;;;;;;5.47;3.60;;;;;;;21.65;41.71;101330.22;5040622;28;20409;-64
2022/05/22 09:09:00;;;;;;;5.10;4.20;;;;;;;21.27;41.85;101333.84;5040408;28;20421;-65
2022/05/22 09:11:40;;;;;;;5.20;3.33;;;;;;;21.66;40.68;101328.44;5039756;28;20413;-65
2022/05/22 09:14:09;;;;;;;5.07;4.00;;;;;;;20.90;42.09;101332.13;5039550;28;20417;-64
2022/05/22 09:16:49;;;;;;;7.70;3.30;;;;;;;21.23;42.24;101335.72;5040214;28;20500;-65
2022/05/22 09:19:23;;;;;;;4.20;2.87;;;;;;;23.23;38.08;101321.97;5039603;28;20480;-65
2022/05/22 09:22:07;;;;;;;4.37;3.20;;;;;;;24.65;35.42;101322.13;5039422;28;20811;-64
2022/05/22 09:24:43;;;;;;;6.03;3.30;;;;;;;25.04;33.38;101319.59;5040281;28;20424;-65
2022/05/22 09:27:17;;;;;;;4.73;2.83;;;;;;;23.31;35.80;101323.47;5040090;28;20451;-66
2022/05/22 09:30:16;;;;;;;3.40;2.33;;;;;;;24.69;32.53;101316.63;5039483;28;20413;-65
2022/05/22 09:32:51;;;;;;;2.40;2.20;;;;;;;24.63;32.12;101324.84;5039270;28;20416;-66
2022/05/22 09:35:29;;;;;;;3.40;3.07;;;;;;;23.95;34.59;101315.88;5040042;28;20408;-65
2022/05/22 09:38:06;;;;;;;3.90;2.97;;;;;;;23.43;36.96;101327.47;5039991;28;20495;-66
2022/05/22 09:40:50;;;;;;;6.37;3.00;;;;;;;22.56;37.57;101321.44;5040053;28;20421;-66
2022/05/22 09:44:06;;;;;;;4.73;3.20;;;;;;;21.72;39.27;101325.63;5039788;28;20464;-65
2022/05/22 09:46:50;;;;;;;4.53;3.30;;;;;;;22.27;38.02;101319.63;5038764;28;20494;-65
2022/05/22 09:49:22;;;;;;;3.60;3.07;;;;;;;24.31;34.06;101307.44;5038901;28;20417;-65
2022/05/22 09:52:20;;;;;;;6.40;5.80;;;;;;;23.37;35.61;101319.72;5039088;28;20511;-65
2022/05/22 09:54:57;;;;;;;7.37;5.30;;;;;;;24.38;34.96;101311.59;5038795;28;20412;-65
2022/05/22 09:57:32;;;;;;;4.30;3.00;;;;;;;23.47;35.31;101310.47;5039474;28;20416;-65
2022/05/22 10:00:16;;;;;;;3.40;2.87;;;;;;;23.95;34.61;101319.44;5039533;28;20456;-66
2022/05/22 10:02:54;;;;;;;5.23;3.10;;;;;;;24.95;32.94;101311.13;5038734;28;20405;-65
2022/05/22 10:05:41;;;;;;;2.87;2.50;;;;;;;25.94;30.89;101313.09;5038884;28;20432;-64
2022/05/22 10:08:34;;;;;;;4.00;2.67;;;;;;;25.49;31.35;101308.88;5038603;28;20420;-66
2022/05/22 10:11:13;;;;;;;4.20;2.70;;;;;;;24.57;33.16;101310.88;5038656;28;20676;-66
2022/05/22 10:14:25;;;;;;;3.97;3.03;;;;;;;23.66;34.11;101312.47;5038644;28;20459;-65
2022/05/22 10:17:08;;;;;;;3.67;3.00;;;;;;;24.07;33.91;101311.91;5037653;28;20500;-65
2022/05/22 10:19:58;;;;;;;7.10;4.17;;;;;;;25.96;32.40;101299.66;5039165;28;20475;-65
2022/05/22 10:22:45;;;;;;;4.47;2.83;;;;;;;25.64;30.21;101293.97;5038996;28;20839;-64
2022/05/22 10:25:26;;;;;;;3.67;3.10;;;;;;;24.00;31.17;101308.59;5039135;28;20847;-66
2022/05/22 10:27:56;;;;;;;4.97;2.60;;;;;;;26.05;29.07;101293.91;5038812;28;20469;-65
2022/05/22 10:30:24;;;;;;;4.90;2.73;;;;;;;26.10;29.37;101291.91;5038307;28;20563;-66
2022/05/22 10:32:53;;;;;;;3.30;2.47;;;;;;;24.50;31.86;101307.56;5038848;28;20409;-65
2022/05/22 10:35:40;;;;;;;4.00;2.80;;;;;;;24.25;32.42;101302.34;5039046;28;20485;-66
2022/05/22 10:38:17;;;;;;;3.83;2.73;;;;;;;23.48;34.44;101303.38;5038154;28;20417;-65
2022/05/22 10:43:52;;;;;;;4.63;2.90;;;;;;;25.86;31.52;101289.38;5038529;28;20726;-65
2022/05/22 10:46:18;;;;;;;3.67;3.10;;;;;;;24.99;32.08;101291.41;5038664;28;20423;-66
2022/05/22 10:48:54;;;;;;;2.90;2.70;;;;;;;23.48;33.33;101296.25;5038704;28;20413;-66
2022/05/22 10:51:29;;;;;;;3.00;2.60;;;;;;;22.49;34.67;101299.50;5038562;28;20162;-65
2022/05/22 10:53:59;;;;;;;3.93;3.10;;;;;;;23.40;34.49;101295.66;5038416;28;20471;-64
2022/05/22 10:56:29;;;;;;;3.10;2.80;;;;;;;24.11;32.35;101287.78;5037748;28;20491;-64
2022/05/22 10:58:59;;;;;;;3.00;2.57;;;;;;;24.49;32.33;101289.84;5038424;28;20470;-64
2022/05/22 11:01:30;;;;;;;5.00;2.83;;;;;;;25.13;30.49;101277.50;5037825;28;20412;-65
2022/05/22 11:04:14;;;;;;;6.90;3.50;;;;;;;26.99;31.01;101277.81;5038304;28;20748;-65
2022/05/22 11:06:55;;;;;;;3.93;2.63;;;;;;;26.51;29.00;101280.16;5038362;28;20421;-65
2022/05/22 11:09:45;;;;;;;3.87;3.10;;;;;;;26.76;29.37;101278.97;5038235;28;20412;-65
2022/05/22 11:12:13;;;;;;;2.90;2.43;;;;;;;25.89;28.58;101272.34;5038175;28;20417;-65
2022/05/22 11:14:39;;;;;;;3.03;2.33;;;;;;;25.47;28.89;101266.22;5037510;28;20413;-64
2022/05/22 11:17:17;;;;;;;5.00;2.70;;;;;;;25.57;30.30;101261.34;5038044;28;20456;-65
2022/05/22 11:19:48;;;;;;;4.00;2.47;;;;;;;26.28;28.54;101252.75;5038105;28;20197;-65
2022/05/22 11:22:30;;;;;;;4.60;2.40;;;;;;;25.25;28.46;101249.38;5037910;28;20447;-65
2022/05/22 11:25:27;;;;;;;4.10;3.13;;;;;;;25.31;30.89;101254.47;5037447;28;20868;-65
2022/05/22 11:28:18;;;;;;;3.17;2.70;;;;;;;23.33;32.44;101251.56;5038081;28;20512;-66
2022/05/22 11:30:43;;;;;;;3.70;2.67;;;;;;;22.47;32.35;101256.16;5037265;28;20680;-65
2022/05/22 11:33:15;;;;;;;5.63;2.83;;;;;;;22.30;33.65;101258.44;5038104;28;20443;-65
2022/05/22 11:35:58;;;;;;;3.10;2.80;;;;;;;23.75;32.19;101258.91;5037199;28;20458;-64
2022/05/22 11:38:48;;;;;;;2.80;2.50;;;;;;;24.81;31.24;101245.91;5038067;28;20413;-65
2022/05/22 11:41:21;;;;;;;2.93;2.50;;;;;;;23.34;31.80;101245.31;5037290;28;20666;-65
2022/05/22 11:43:56;;;;;;;3.27;2.80;;;;;;;22.97;32.39;101239.44;5037956;28;20416;-65
2022/05/22 11:46:32;;;;;;;4.00;2.60;;;;;;;22.52;34.33;101242.75;5037139;28;20416;-65
2022/05/22 11:49:22;;;;;;;4.17;2.97;;;;;;;22.57;35.38;101247.88;5037963;28;20489;-64
2022/05/22 11:55:29;;;;;;;3.33;3.00;;;;;;;21.61;36.68;101248.09;5037455;28;20412;-64